createdAt,value
2023-02-06T00:01:25.194Z,2.92
2023-02-06T00:03:52.703Z,2.60
2023-02-06T00:06:20.568Z,2.95
2023-02-06T00:08:48.271Z,3.13
2023-02-06T00:11:19.567Z,3.03
2023-02-06T00:13:47.124Z,2.65
2023-02-06T00:16:18.863Z,3.30
2023-02-06T00:18:46.890Z,3.15
2023-02-06T00:21:14.847Z,3.10
2023-02-06T00:23:42.357Z,3.10
2023-02-06T00:26:09.949Z,3.25
2023-02-06T00:28:38.467Z,3.17
2023-02-06T00:31:07.489Z,3.15
2023-02-06T00:33:35.900Z,3.67
2023-02-06T00:36:05.062Z,2.97
2023-02-06T00:38:32.837Z,2.95
2023-02-06T00:41:00.532Z,3.65
2023-02-06T00:43:27.978Z,3.38
2023-02-06T00:45:58.389Z,3.20
2023-02-06T00:48:26.136Z,3.50
2023-02-06T00:50:54.055Z,3.22
2023-02-06T00:53:22.014Z,3.15
2023-02-06T00:55:49.611Z,3.38
2023-02-06T00:58:17.245Z,3.35
2023-02-06T01:00:44.805Z,3.47
2023-02-06T01:03:12.769Z,3.63
2023-02-06T01:05:40.357Z,3.30
2023-02-06T01:08:07.884Z,3.50
2023-02-06T01:10:35.429Z,3.78
2023-02-06T01:13:02.970Z,3.50
2023-02-06T01:15:30.388Z,3.38
2023-02-06T01:17:57.856Z,3.80
2023-02-06T01:20:25.482Z,3.58
2023-02-06T01:22:53.316Z,3.35
2023-02-06T01:25:20.836Z,3.38
2023-02-06T01:27:48.273Z,3.63
2023-02-06T01:30:15.838Z,3.83
2023-02-06T01:32:43.391Z,3.95
2023-02-06T01:35:12.485Z,4.50
2023-02-06T01:37:41.209Z,3.83
2023-02-06T01:40:13.037Z,4.10
2023-02-06T01:42:40.520Z,3.88
2023-02-06T01:45:26.436Z,3.80
2023-02-06T01:48:02.506Z,4.20
2023-02-06T01:50:32.671Z,4.10
2023-02-06T01:53:01.866Z,4.57
2023-02-06T01:55:29.926Z,4.78
2023-02-06T01:58:01.157Z,4.85
2023-02-06T02:00:28.672Z,4.45
2023-02-06T02:02:56.145Z,4.10
2023-02-06T02:05:23.791Z,4.75
2023-02-06T02:08:02.194Z,4.50
2023-02-06T02:10:31.404Z,4.90
2023-02-06T02:12:59.051Z,4.95
2023-02-06T02:15:39.708Z,4.65
2023-02-06T02:18:21.328Z,4.93
2023-02-06T02:21:07.528Z,5.40
2023-02-06T02:23:47.962Z,5.68
2023-02-06T02:26:50.084Z,5.40
2023-02-06T02:29:38.813Z,5.88
2023-02-06T02:32:20.083Z,5.97
2023-02-06T02:34:56.571Z,7.07
2023-02-06T02:37:47.182Z,7.05
2023-02-06T02:40:56.349Z,7.70
2023-02-06T02:43:43.796Z,7.45
2023-02-06T02:46:21.600Z,7.22
2023-02-06T02:48:52.289Z,6.95
2023-02-06T02:51:19.857Z,6.32
2023-02-06T02:53:47.377Z,7.30
2023-02-06T02:56:21.569Z,7.45
2023-02-06T02:58:57.113Z,7.80
2023-02-06T03:01:34.148Z,7.45
2023-02-06T03:04:12.816Z,8.50
2023-02-06T03:07:17.536Z,8.20
2023-02-06T03:10:26.567Z,8.07
2023-02-06T03:13:10.980Z,7.72
2023-02-06T03:15:47.166Z,7.65
2023-02-06T03:18:32.794Z,7.15
2023-02-06T03:21:03.602Z,7.15
2023-02-06T03:23:37.530Z,7.22
2023-02-06T03:26:09.700Z,7.78
2023-02-06T03:28:45.453Z,7.50
2023-02-06T03:31:17.715Z,7.88
2023-02-06T03:33:55.214Z,8.90
2023-02-06T03:36:22.768Z,8.95
2023-02-06T03:38:52.286Z,8.90
2023-02-06T03:41:26.007Z,9.45
2023-02-06T03:43:54.849Z,9.18
2023-02-06T03:46:24.474Z,9.40
2023-02-06T03:48:58.088Z,9.25
2023-02-06T03:51:30.267Z,9.60
2023-02-06T03:53:59.999Z,10.30
2023-02-06T03:56:40.259Z,9.23
2023-02-06T03:59:08.047Z,10.05
2023-02-06T04:01:40.917Z,10.00
2023-02-06T04:04:08.491Z,10.38
2023-02-06T04:06:36.112Z,9.55
2023-02-06T04:09:03.660Z,9.07
2023-02-06T04:11:31.167Z,9.73
2023-02-06T04:13:58.622Z,9.93
2023-02-06T04:16:26.304Z,11.43
2023-02-06T04:18:53.943Z,10.55
2023-02-06T04:21:21.393Z,12.20
2023-02-06T04:23:48.980Z,13.48
2023-02-06T04:26:16.412Z,12.68
2023-02-06T04:28:43.984Z,12.57
2023-02-06T04:31:11.550Z,13.07
2023-02-06T04:33:39.083Z,11.70
2023-02-06T04:36:07.683Z,11.85
2023-02-06T04:38:35.174Z,13.27
2023-02-06T04:41:07.253Z,12.60
2023-02-06T04:43:35.024Z,13.82
2023-02-06T04:46:02.558Z,13.50
2023-02-06T04:48:30.128Z,12.15
2023-02-06T04:50:57.681Z,11.82
2023-02-06T04:53:25.163Z,10.95
2023-02-06T04:55:52.632Z,11.00
2023-02-06T04:58:20.160Z,16.27
2023-02-06T05:00:48.043Z,18.33
2023-02-06T05:03:15.524Z,17.27
2023-02-06T05:05:43.021Z,20.10
2023-02-06T05:08:10.527Z,15.45
2023-02-06T05:10:37.999Z,13.65
2023-02-06T05:13:05.661Z,12.02
2023-02-06T05:15:36.275Z,15.00
2023-02-06T05:18:04.202Z,16.08
2023-02-06T05:20:32.427Z,16.52
2023-02-06T05:22:59.977Z,15.57
2023-02-06T05:25:27.601Z,14.23
2023-02-06T05:27:55.587Z,14.18
2023-02-06T05:30:24.621Z,14.80
2023-02-06T05:32:52.204Z,14.18
2023-02-06T05:39:37.981Z,14.73
2023-02-06T05:42:05.551Z,14.60
2023-02-06T05:44:33.070Z,15.13
2023-02-06T05:47:00.566Z,14.18
2023-02-06T05:49:28.087Z,14.68
2023-02-06T05:51:55.496Z,15.35
2023-02-06T05:54:23.154Z,15.60
2023-02-06T05:56:50.648Z,17.05
2023-02-06T05:59:18.107Z,16.08
2023-02-06T06:01:45.727Z,16.10
2023-02-06T06:04:13.207Z,17.10
2023-02-06T06:06:40.775Z,16.45
2023-02-06T06:09:08.446Z,15.95
2023-02-06T06:11:35.908Z,16.67
2023-02-06T06:14:03.558Z,16.55
2023-02-06T06:16:31.379Z,16.88
2023-02-06T06:18:58.940Z,16.15
2023-02-06T06:21:26.452Z,16.63
2023-02-06T06:23:54.046Z,16.63
2023-02-06T06:26:23.002Z,17.08
2023-02-06T06:28:50.402Z,16.10
2023-02-06T06:31:18.419Z,17.95
2023-02-06T06:33:45.938Z,16.27
2023-02-06T06:36:14.623Z,15.35
2023-02-06T06:38:42.407Z,16.90
2023-02-06T06:41:09.861Z,17.08
2023-02-06T06:43:37.676Z,15.98
2023-02-06T06:46:05.880Z,16.23
2023-02-06T06:48:33.406Z,15.25
2023-02-06T06:51:00.907Z,15.90
2023-02-06T06:53:28.655Z,16.88
2023-02-06T06:56:01.780Z,16.30
2023-02-06T06:58:29.299Z,16.10
2023-02-06T07:00:56.876Z,15.77
2023-02-06T07:03:24.760Z,15.57
2023-02-06T07:05:53.343Z,16.10
2023-02-06T07:08:20.835Z,15.98
2023-02-06T07:10:48.505Z,15.73
2023-02-06T07:13:16.008Z,14.90
2023-02-06T07:15:43.835Z,15.90
2023-02-06T07:18:11.978Z,16.70
2023-02-06T07:20:39.521Z,15.55
2023-02-06T07:23:07.178Z,16.08
2023-02-06T07:25:34.935Z,16.17
2023-02-06T07:28:02.675Z,17.30
2023-02-06T07:30:30.302Z,16.10
2023-02-06T07:32:57.729Z,15.93
2023-02-06T07:35:25.347Z,15.70
2023-02-06T07:37:53.958Z,17.08
2023-02-06T07:40:21.545Z,15.98
2023-02-06T07:42:49.132Z,15.82
2023-02-06T07:45:27.379Z,16.02
2023-02-06T07:47:54.878Z,16.33
2023-02-06T07:50:22.414Z,16.17
2023-02-06T07:52:49.975Z,16.27
2023-02-06T07:55:17.652Z,16.40
2023-02-06T07:57:45.101Z,17.27
2023-02-06T08:00:13.210Z,17.02
2023-02-06T08:02:40.740Z,15.55
2023-02-06T08:05:08.975Z,17.58
2023-02-06T08:07:36.580Z,18.27
2023-02-06T08:10:04.778Z,18.58
2023-02-06T08:12:32.520Z,19.00
2023-02-06T08:14:59.999Z,19.65
2023-02-06T08:17:28.177Z,19.15
2023-02-06T08:19:55.660Z,18.52
2023-02-06T08:22:23.288Z,18.88
2023-02-06T08:24:50.785Z,16.65
2023-02-06T08:27:18.279Z,17.50
2023-02-06T08:29:45.929Z,18.80
2023-02-06T08:32:13.487Z,17.45
2023-02-06T08:34:41.556Z,17.98
2023-02-06T08:37:09.044Z,17.98
2023-02-06T08:39:36.809Z,16.70
2023-02-06T08:42:04.788Z,16.70
2023-02-06T08:44:32.897Z,17.23
2023-02-06T08:47:09.682Z,17.05
2023-02-06T08:49:38.451Z,16.02
2023-02-06T08:52:06.198Z,15.02
2023-02-06T08:54:35.990Z,15.35
2023-02-06T08:57:06.837Z,14.82
2023-02-06T08:59:35.041Z,13.70
2023-02-06T09:02:02.613Z,14.50
2023-02-06T09:04:32.076Z,13.52
2023-02-06T09:06:59.526Z,14.73
2023-02-06T09:09:27.109Z,15.88
2023-02-06T09:11:55.891Z,15.70
2023-02-06T09:14:23.390Z,15.07
2023-02-06T09:16:51.009Z,15.13
2023-02-06T09:19:18.500Z,17.33
2023-02-06T09:21:46.041Z,17.98
2023-02-06T09:24:13.581Z,18.02
2023-02-06T09:26:58.074Z,17.77
2023-02-06T09:29:29.439Z,19.52
2023-02-06T09:31:57.769Z,20.50
2023-02-06T09:34:26.421Z,21.33
2023-02-06T09:36:55.251Z,21.52
2023-02-06T09:39:23.043Z,21.95
2023-02-06T09:41:53.768Z,23.75
2023-02-06T09:44:32.515Z,24.90
2023-02-06T09:47:22.191Z,25.42
2023-02-06T09:49:54.125Z,26.85
2023-02-06T09:52:57.122Z,27.77
2023-02-06T09:55:39.707Z,29.83
2023-02-06T09:58:16.456Z,30.60
2023-02-06T10:00:49.838Z,30.35
2023-02-06T10:03:24.381Z,31.13
2023-02-06T10:05:54.662Z,29.85
2023-02-06T10:09:07.098Z,30.83
2023-02-06T10:11:49.872Z,29.08
2023-02-06T10:14:47.208Z,28.10
2023-02-06T10:17:23.351Z,28.65
2023-02-06T10:20:03.350Z,27.27
2023-02-06T10:22:54.630Z,29.45
2023-02-06T10:25:29.134Z,29.13
2023-02-06T10:28:02.729Z,27.85
2023-02-06T10:34:05.663Z,29.67
2023-02-06T10:37:01.531Z,31.63
2023-02-06T10:39:53.828Z,31.17
2023-02-06T10:42:40.506Z,29.08
2023-02-06T10:45:20.633Z,29.83
2023-02-06T10:47:56.821Z,31.83
2023-02-06T10:50:48.720Z,29.23
2023-02-06T10:53:38.840Z,29.48
2023-02-06T10:56:11.418Z,31.25
2023-02-06T10:58:51.371Z,23.10
2023-02-06T11:01:26.480Z,31.17
2023-02-06T11:04:05.716Z,31.17
2023-02-06T11:06:33.588Z,29.92
2023-02-06T11:09:00.995Z,30.65
2023-02-06T11:11:33.557Z,28.75
2023-02-06T11:14:07.858Z,23.65
2023-02-06T11:16:39.035Z,30.95
2023-02-06T11:19:24.272Z,31.40
2023-02-06T11:22:08.126Z,31.40
2023-02-06T11:27:15.369Z,30.48
2023-02-06T11:29:50.994Z,31.98
2023-02-06T11:33:02.545Z,31.58
2023-02-06T11:35:37.357Z,31.45
2023-02-06T11:38:16.311Z,32.28
2023-02-06T11:40:53.717Z,30.73
2023-02-06T11:43:24.234Z,27.60
2023-02-06T11:46:25.382Z,28.23
2023-02-06T11:48:55.890Z,26.75
2023-02-06T11:51:24.693Z,27.45
2023-02-06T11:53:56.906Z,27.90
2023-02-06T11:56:25.497Z,25.25
2023-02-06T11:59:27.289Z,23.40
2023-02-06T12:01:55.452Z,23.20
2023-02-06T12:04:39.818Z,24.85
2023-02-06T12:07:18.922Z,20.10
2023-02-06T12:09:46.563Z,18.92
2023-02-06T12:12:23.936Z,19.77
2023-02-06T12:14:56.658Z,17.58
2023-02-06T12:17:40.914Z,16.85
2023-02-06T12:20:16.453Z,18.13
2023-02-06T12:22:50.501Z,17.60
2023-02-06T12:25:40.269Z,14.05
2023-02-06T12:28:20.217Z,14.65
2023-02-06T12:31:23.410Z,17.05
2023-02-06T12:33:55.374Z,16.17
2023-02-06T12:36:25.975Z,15.82
2023-02-06T12:39:01.114Z,15.70
2023-02-06T12:41:50.005Z,16.42
2023-02-06T12:44:45.719Z,13.77
2023-02-06T12:47:29.215Z,14.98
2023-02-06T12:50:24.212Z,14.57
2023-02-06T12:53:13.299Z,14.77
2023-02-06T12:55:49.638Z,13.55
2023-02-06T12:58:43.354Z,13.10
2023-02-06T13:01:34.658Z,14.43
2023-02-06T13:04:06.952Z,14.25
2023-02-06T13:06:56.788Z,16.38
2023-02-06T13:09:29.200Z,14.40
2023-02-06T13:12:15.978Z,12.55
2023-02-06T13:14:50.002Z,12.85
2023-02-06T13:17:39.178Z,12.13
2023-02-06T13:20:11.232Z,11.23
2023-02-06T13:22:43.515Z,11.15
2023-02-06T13:25:26.554Z,11.52
2023-02-06T13:27:58.616Z,8.60
2023-02-06T13:30:28.995Z,9.77
2023-02-06T13:33:10.955Z,10.40
2023-02-06T13:35:54.534Z,10.85
2023-02-06T13:38:24.714Z,11.43
2023-02-06T13:41:16.965Z,10.57
2023-02-06T13:44:06.838Z,10.10
2023-02-06T13:46:37.261Z,10.63
2023-02-06T13:49:36.139Z,11.73
2023-02-06T13:52:32.744Z,10.23
2023-02-06T13:55:37.503Z,10.05
2023-02-06T13:58:32.535Z,9.45
2023-02-06T14:01:01.308Z,10.35
2023-02-06T14:03:35.021Z,10.45
2023-02-06T14:08:57.354Z,8.27
2023-02-06T14:12:03.943Z,10.20
2023-02-06T14:14:56.912Z,10.60
2023-02-06T14:17:46.560Z,9.82
2023-02-06T14:20:53.073Z,10.23
2023-02-06T14:23:35.858Z,10.00
2023-02-06T14:26:15.810Z,9.57
2023-02-06T14:29:03.540Z,10.30
2023-02-06T14:31:49.771Z,10.10
2023-02-06T14:34:42.677Z,10.65
2023-02-06T14:37:50.838Z,10.82
2023-02-06T14:40:27.012Z,11.13
2023-02-06T14:42:58.418Z,12.55
2023-02-06T14:45:38.524Z,12.65
2023-02-06T14:48:34.547Z,12.80
2023-02-06T14:51:02.453Z,11.60
2023-02-06T14:53:35.664Z,12.77
2023-02-06T14:56:12.486Z,12.63
2023-02-06T14:58:40.189Z,11.55
2023-02-06T15:01:21.451Z,12.15
2023-02-06T15:03:52.940Z,11.48
2023-02-06T15:06:35.637Z,11.82
2023-02-06T15:09:04.057Z,10.80
2023-02-06T15:11:35.010Z,12.82
2023-02-06T15:14:19.204Z,12.43
2023-02-06T15:16:48.525Z,12.95
2023-02-06T15:19:25.324Z,14.10
2023-02-06T15:22:02.312Z,14.10
2023-02-06T15:25:14.885Z,13.98
2023-02-06T15:27:42.423Z,14.82
2023-02-06T15:30:22.363Z,13.52
2023-02-06T15:32:56.040Z,13.10
2023-02-06T15:37:54.119Z,13.52
2023-02-06T15:40:31.121Z,12.40
2023-02-06T15:42:59.897Z,12.73
2023-02-06T15:45:31.165Z,12.70
2023-02-06T15:48:00.201Z,12.80
2023-02-06T15:50:28.824Z,13.57
2023-02-06T15:52:56.517Z,14.30
2023-02-06T15:55:34.416Z,15.70
2023-02-06T15:58:04.856Z,13.85
2023-02-06T16:00:36.118Z,14.10
2023-02-06T16:03:08.187Z,15.35
2023-02-06T16:05:41.090Z,14.07
2023-02-06T16:08:28.220Z,11.85
2023-02-06T16:11:30.990Z,12.65
2023-02-06T16:13:59.053Z,13.07
2023-02-06T16:16:28.471Z,13.15
2023-02-06T16:18:58.725Z,16.75
2023-02-06T16:21:31.790Z,20.70
2023-02-06T16:24:03.382Z,27.77
2023-02-06T16:26:44.341Z,23.63
2023-02-06T16:29:11.881Z,18.55
2023-02-06T16:31:42.866Z,26.38
2023-02-06T16:34:29.169Z,15.80
2023-02-06T16:36:56.672Z,12.85
2023-02-06T16:39:24.119Z,12.88
2023-02-06T16:41:53.134Z,13.85
2023-02-06T16:44:21.088Z,14.38
2023-02-06T16:46:48.554Z,16.08
2023-02-06T16:49:18.798Z,20.25
2023-02-06T16:51:47.926Z,16.50
2023-02-06T16:54:26.394Z,14.32
2023-02-06T16:56:55.997Z,14.10
2023-02-06T16:59:23.555Z,14.15
2023-02-06T17:01:51.038Z,14.27
2023-02-06T17:04:18.654Z,13.43
2023-02-06T17:06:46.158Z,14.23
2023-02-06T17:09:17.485Z,13.85
2023-02-06T17:11:44.958Z,13.55
2023-02-06T17:14:12.483Z,13.77
2023-02-06T17:16:40.108Z,12.85
2023-02-06T17:19:07.736Z,14.48
2023-02-06T17:21:35.176Z,14.85
2023-02-06T17:24:02.619Z,14.23
2023-02-06T17:26:30.160Z,13.82
2023-02-06T17:28:57.679Z,13.52
2023-02-06T17:31:25.378Z,13.98
2023-02-06T17:33:52.954Z,14.63
2023-02-06T17:36:29.689Z,15.60
2023-02-06T17:39:00.676Z,17.15
2023-02-06T17:41:28.482Z,16.10
2023-02-06T17:43:56.045Z,15.70
2023-02-06T17:46:23.905Z,15.07
2023-02-06T17:48:51.345Z,15.70
2023-02-06T17:51:18.893Z,15.30
2023-02-06T17:53:46.480Z,16.60
2023-02-06T17:56:14.115Z,17.17
2023-02-06T17:58:43.202Z,17.75
2023-02-06T18:01:15.944Z,15.70
2023-02-06T18:03:44.378Z,17.83
2023-02-06T18:06:13.289Z,15.85
2023-02-06T18:08:41.446Z,15.13
2023-02-06T18:11:14.769Z,17.17
2023-02-06T18:13:42.916Z,15.23
2023-02-06T18:16:18.962Z,15.00
2023-02-06T18:18:47.181Z,15.55
2023-02-06T18:21:15.275Z,14.75
2023-02-06T18:23:42.794Z,15.18
2023-02-06T18:26:11.040Z,15.18
2023-02-06T18:28:39.810Z,14.55
2023-02-06T18:31:40.020Z,14.40
2023-02-06T18:34:08.433Z,14.05
2023-02-06T18:36:37.192Z,15.10
2023-02-06T18:39:06.301Z,14.93
2023-02-06T18:41:52.650Z,13.30
2023-02-06T18:44:20.193Z,15.57
2023-02-06T18:46:47.666Z,13.98
2023-02-06T18:49:15.205Z,15.25
2023-02-06T18:51:42.849Z,14.60
2023-02-06T18:54:10.418Z,14.15
2023-02-06T18:56:38.776Z,13.55
2023-02-06T18:59:06.549Z,13.60
2023-02-06T19:01:34.151Z,14.35
2023-02-06T19:04:01.618Z,14.18
2023-02-06T19:06:34.531Z,15.35
2023-02-06T19:09:07.086Z,13.98
2023-02-06T19:11:37.956Z,15.77
2023-02-06T19:14:07.541Z,15.02
2023-02-06T19:16:38.548Z,14.77
2023-02-06T19:19:07.834Z,14.38
2023-02-06T19:21:35.330Z,14.68
2023-02-06T19:24:02.976Z,14.15
2023-02-06T19:26:30.862Z,15.32
2023-02-06T19:28:58.524Z,14.45
2023-02-06T19:31:26.024Z,13.32
2023-02-06T19:33:59.546Z,12.85
2023-02-06T19:36:28.756Z,14.13
2023-02-06T19:39:01.351Z,15.00
2023-02-06T19:41:31.097Z,15.13
2023-02-06T19:44:03.052Z,14.25
2023-02-06T19:46:31.251Z,15.55
2023-02-06T19:48:58.839Z,16.38
2023-02-06T19:51:32.419Z,17.05
2023-02-06T19:56:38.472Z,15.63
2023-02-06T19:59:18.384Z,15.40
2023-02-06T20:01:48.725Z,15.75
2023-02-06T20:04:17.223Z,16.02
2023-02-06T20:06:45.347Z,15.98
2023-02-06T20:09:15.128Z,16.08
2023-02-06T20:11:43.180Z,16.73
2023-02-06T20:14:12.385Z,15.05
2023-02-06T20:16:41.660Z,16.83
2023-02-06T20:19:13.314Z,15.52
2023-02-06T20:21:43.993Z,16.83
2023-02-06T20:24:15.781Z,15.52
2023-02-06T20:26:43.365Z,16.42
2023-02-06T20:29:22.051Z,16.08
2023-02-06T20:31:50.804Z,16.77
2023-02-06T20:34:19.224Z,16.83
2023-02-06T20:36:47.541Z,17.08
2023-02-06T20:39:15.930Z,17.58
2023-02-06T20:41:45.597Z,16.67
2023-02-06T20:44:14.399Z,16.10
2023-02-06T20:46:42.845Z,16.23
2023-02-06T20:49:19.749Z,15.60
2023-02-06T20:51:49.209Z,15.00
2023-02-06T20:54:18.172Z,15.82
2023-02-06T20:56:46.055Z,14.63
2023-02-06T20:59:15.816Z,13.77
2023-02-06T21:01:43.666Z,15.68
2023-02-06T21:04:12.744Z,14.10
2023-02-06T21:06:40.844Z,13.95
2023-02-06T21:09:09.669Z,15.02
2023-02-06T21:11:41.349Z,16.48
2023-02-06T21:14:09.417Z,16.70
2023-02-06T21:16:38.222Z,16.73
2023-02-06T21:19:07.513Z,16.13
2023-02-06T21:21:35.457Z,16.92
2023-02-06T21:24:03.247Z,16.83
2023-02-06T21:26:30.904Z,17.95
2023-02-06T21:28:59.806Z,16.40
2023-02-06T21:31:37.341Z,15.80
2023-02-06T21:34:09.810Z,15.93
2023-02-06T21:36:39.026Z,17.35
2023-02-06T21:39:07.511Z,17.80
2023-02-06T21:41:36.512Z,17.60
2023-02-06T21:44:04.660Z,17.10
2023-02-06T21:46:32.270Z,17.35
2023-02-06T21:48:59.873Z,16.60
2023-02-06T21:51:27.779Z,17.45
2023-02-06T21:53:56.573Z,16.70
2023-02-06T21:56:28.060Z,17.38
2023-02-06T21:58:56.663Z,18.90
2023-02-06T22:01:28.753Z,18.30
2023-02-06T22:03:57.464Z,17.90
2023-02-06T22:06:25.043Z,16.98
2023-02-06T22:08:54.393Z,17.92
2023-02-06T22:11:27.614Z,17.65
2023-02-06T22:14:00.345Z,16.15
2023-02-06T22:16:29.272Z,14.07
2023-02-06T22:18:57.240Z,18.15
2023-02-06T22:21:26.948Z,18.48
2023-02-06T22:23:58.165Z,18.92
2023-02-06T22:26:27.095Z,17.70
2023-02-06T22:28:54.714Z,17.17
2023-02-06T22:31:25.226Z,16.95
2023-02-06T22:33:53.618Z,17.05
2023-02-06T22:36:24.193Z,17.27
2023-02-06T22:38:57.492Z,18.65
2023-02-06T22:41:25.238Z,16.98
2023-02-06T22:43:53.067Z,17.00
2023-02-06T22:46:28.976Z,17.90
2023-02-06T22:48:57.356Z,17.45
2023-02-06T22:51:25.464Z,16.15
2023-02-06T22:53:54.462Z,17.13
2023-02-06T22:56:29.678Z,16.23
2023-02-06T22:59:02.421Z,17.25
2023-02-06T23:01:33.309Z,16.30
2023-02-06T23:04:02.249Z,19.23
2023-02-06T23:06:31.223Z,16.95
2023-02-06T23:09:00.740Z,17.98
2023-02-06T23:11:29.218Z,18.35
2023-02-06T23:14:00.003Z,16.20
2023-02-06T23:16:28.921Z,16.85
2023-02-06T23:18:56.532Z,18.58
2023-02-06T23:21:26.032Z,17.00
2023-02-06T23:23:55.901Z,16.65
2023-02-06T23:26:24.190Z,17.40
2023-02-06T23:28:51.668Z,16.55
2023-02-06T23:31:19.475Z,16.88
2023-02-06T23:33:46.935Z,16.10
2023-02-06T23:36:16.740Z,15.57
2023-02-06T23:38:44.492Z,16.38
2023-02-06T23:41:18.640Z,17.10
2023-02-06T23:43:51.379Z,17.60
2023-02-06T23:46:20.264Z,17.85
2023-02-06T23:48:51.790Z,17.25
2023-02-06T23:51:20.708Z,16.80
2023-02-06T23:53:49.238Z,17.92
2023-02-06T23:56:20.004Z,18.63
2023-02-06T23:58:47.839Z,17.15
